Time;durP1;ratioP1;P1;durP2;ratioP2;P2;SDS_P1;SDS_P2;PMS_P1;PMS_P2;Temp;Humidity;BMP_temperature;BMP_pressure;BME280_temperature;BME280_humidity;BME280_pressure;Samples;Min_cycle;Max_cycle;Signal;HPM_P1;HPM_P2
2022/10/04 00:00:35;;;;;;;17.02;7.60;;;12.80;99.90;;;;;;5019676;28;19917;-74
2022/10/04 00:03:16;;;;;;;14.98;7.90;;;12.80;99.90;;;;;;5036148;28;20052;-73
2022/10/04 00:05:49;;;;;;;18.42;8.70;;;12.70;99.90;;;;;;5054925;28;20112;-73
2022/10/04 00:08:34;;;;;;;19.35;7.72;;;12.80;99.90;;;;;;5019782;28;20591;-73
2022/10/04 00:11:11;;;;;;;14.25;7.70;;;12.70;99.90;;;;;;5019567;28;20460;-73
2022/10/04 00:13:37;;;;;;;15.68;7.85;;;;;;;;;;5036276;28;20477;-73
2022/10/04 00:16:03;;;;;;;20.85;7.50;;;;;;;;;;5053658;28;20045;-73
2022/10/04 00:18:38;;;;;;;19.13;7.80;;;12.80;99.90;;;;;;5035332;28;20044;-73
2022/10/04 00:21:05;;;;;;;20.77;9.60;;;12.70;99.90;;;;;;5037070;28;20060;-74
2022/10/04 00:23:37;;;;;;;17.92;9.05;;;12.80;99.90;;;;;;5053802;28;20040;-73
2022/10/04 00:26:04;;;;;;;17.45;8.48;;;12.70;99.90;;;;;;5053508;28;20037;-73
2022/10/04 00:28:35;;;;;;;22.65;9.27;;;12.60;99.90;;;;;;5019548;28;20515;-74
2022/10/04 00:31:07;;;;;;;18.40;7.85;;;12.60;99.90;;;;;;5053513;28;20487;-73
2022/10/04 00:33:34;;;;;;;16.00;8.98;;;12.80;99.90;;;;;;5035957;28;20041;-73
2022/10/04 00:35:59;;;;;;;18.67;8.40;;;12.60;99.90;;;;;;5053425;28;20045;-73
2022/10/04 00:38:27;;;;;;;19.13;8.63;;;12.70;99.90;;;;;;5036633;28;20414;-73
2022/10/04 00:41:02;;;;;;;17.02;8.10;;;12.60;99.90;;;;;;5053416;28;20045;-74
2022/10/04 00:43:41;;;;;;;16.08;8.43;;;12.90;99.90;;;;;;5035451;28;20099;-74
2022/10/04 00:46:14;;;;;;;14.13;7.57;;;12.60;99.90;;;;;;5035384;28;20453;-73
2022/10/04 00:48:42;;;;;;;19.13;9.65;;;12.60;99.90;;;;;;5035465;28;20506;-73
2022/10/04 00:51:18;;;;;;;17.05;8.98;;;12.50;99.90;;;;;;5035223;28;20051;-73
2022/10/04 00:53:56;;;;;;;12.77;7.72;;;12.60;99.90;;;;;;5036666;28;20451;-73
2022/10/04 00:56:51;;;;;;;16.25;8.77;;;12.60;99.90;;;;;;5042392;28;20067;-73
2022/10/04 00:59:19;;;;;;;21.33;9.20;;;12.70;99.90;;;;;;5050658;28;20135;-73
2022/10/04 01:01:49;;;;;;;27.90;8.77;;;12.80;99.90;;;;;;5053056;28;20036;-73
2022/10/04 01:04:44;;;;;;;19.42;10.18;;;12.80;99.90;;;;;;5072708;28;20071;-73
2022/10/04 01:07:14;;;;;;;15.15;8.02;;;12.90;99.90;;;;;;5071507;28;20053;-73
2022/10/04 01:09:56;;;;;;;20.13;8.18;;;12.70;99.90;;;;;;5072950;28;20041;-73
2022/10/04 01:12:32;;;;;;;19.33;8.75;;;12.60;99.90;;;;;;5071167;28;20041;-73
2022/10/04 01:15:25;;;;;;;15.98;8.98;;;12.80;99.90;;;;;;5054404;28;20498;-73
2022/10/04 01:18:09;;;;;;;21.02;9.80;;;12.70;99.90;;;;;;5054735;28;20036;-73
2022/10/04 01:20:49;;;;;;;20.35;8.73;;;12.60;99.90;;;;;;5072531;28;20051;-73
2022/10/04 01:23:33;;;;;;;18.52;10.07;;;12.70;99.90;;;;;;5054723;28;20103;-73
2022/10/04 01:26:01;;;;;;;20.70;9.77;;;12.70;99.90;;;;;;5072223;28;20132;-73
2022/10/04 01:28:27;;;;;;;28.80;9.88;;;12.40;99.90;;;;;;5056069;28;20098;-73
2022/10/04 01:30:53;;;;;;;19.70;9.98;;;12.80;99.90;;;;;;5037191;28;20530;-73
2022/10/04 01:33:19;;;;;;;19.30;9.55;;;;;;;;;;5072363;28;20132;-73
2022/10/04 01:35:47;;;;;;;17.98;11.05;;;12.80;99.90;;;;;;5071918;28;20127;-73
2022/10/04 01:38:13;;;;;;;18.17;8.75;;;12.50;99.90;;;;;;5054399;28;20052;-73
2022/10/04 01:40:49;;;;;;;18.50;10.00;;;12.70;99.90;;;;;;5054261;28;20040;-73
2022/10/04 01:43:21;;;;;;;17.80;10.30;;;12.60;99.90;;;;;;5054378;28;20052;-73
2022/10/04 01:45:57;;;;;;;21.90;10.30;;;12.30;99.90;;;;;;5072391;28;20142;-73
2022/10/04 01:48:27;;;;;;;14.82;8.80;;;12.30;99.90;;;;;;5037968;28;20317;-73
2022/10/04 01:51:22;;;;;;;24.38;10.23;;;12.40;99.90;;;;;;5055109;28;20479;-73
2022/10/04 01:53:57;;;;;;;22.27;8.95;;;12.50;99.90;;;;;;5048339;28;20052;-73
2022/10/04 01:56:28;;;;;;;20.02;9.50;;;12.10;99.90;;;;;;5054164;28;20044;-72
2022/10/04 01:59:04;;;;;;;22.83;9.45;;;12.00;99.90;;;;;;5054296;28;20051;-73
2022/10/04 02:01:47;;;;;;;20.85;9.10;;;12.10;99.90;;;;;;5026577;28;20090;-73
2022/10/04 02:04:19;;;;;;;17.27;8.98;;;12.20;99.90;;;;;;5033728;28;20675;-73
2022/10/04 02:06:47;;;;;;;22.37;9.30;;;11.90;99.90;;;;;;5034318;28;20036;-74
2022/10/04 02:09:18;;;;;;;25.40;9.90;;;12.20;99.90;;;;;;5051743;28;20112;-73
2022/10/04 02:11:49;;;;;;;20.58;10.45;;;11.90;99.90;;;;;;5051955;28;20041;-73
2022/10/04 02:14:18;;;;;;;16.02;8.68;;;12.10;99.90;;;;;;5033750;28;20037;-73
2022/10/04 02:16:46;;;;;;;31.45;11.50;;;11.90;99.90;;;;;;5017418;28;20029;-73
2022/10/04 02:19:13;;;;;;;21.70;9.50;;;11.80;99.90;;;;;;5033783;28;20060;-73
2022/10/04 02:21:39;;;;;;;20.35;9.63;;;11.90;99.90;;;;;;5033637;28;20041;-73
2022/10/04 02:24:07;;;;;;;15.60;9.00;;;11.70;99.90;;;;;;5033437;28;20425;-73
2022/10/04 02:26:33;;;;;;;24.25;10.63;;;11.70;99.90;;;;;;5034023;28;20037;-73
2022/10/04 02:28:59;;;;;;;19.15;9.48;;;11.90;99.90;;;;;;5033911;28;20044;-72
2022/10/04 02:34:10;;;;;;;20.50;10.48;;;11.70;99.90;;;;;;5033316;28;20080;-73
2022/10/04 02:36:37;;;;;;;26.58;11.23;;;;;;;;;;5045931;28;20120;-73
2022/10/04 02:39:16;;;;;;;15.30;9.07;;;11.80;99.90;;;;;;5053804;28;20135;-73
2022/10/04 02:41:52;;;;;;;16.58;8.88;;;11.80;99.90;;;;;;5074638;28;20044;-73
2022/10/04 02:44:32;;;;;;;20.10;7.88;;;11.70;99.90;;;;;;5075416;28;20053;-73
2022/10/04 02:47:17;;;;;;;20.90;8.85;;;11.60;99.90;;;;;;5057926;28;20032;-73
2022/10/04 02:50:00;;;;;;;14.40;8.38;;;11.60;99.90;;;;;;5057567;28;20079;-73
2022/10/04 02:52:29;;;;;;;;;;;11.70;99.90;;;;;;5076052;28;20055;-73
2022/10/04 02:55:23;;;;;;;24.20;9.60;;;11.50;99.90;;;;;;5075782;28;19931;-71
2022/10/04 02:57:51;;;;;;;14.75;8.18;;;;;;;;;;5011125;28;20088;-73
2022/10/04 03:00:17;;;;;;;18.67;8.77;;;11.60;99.90;;;;;;5058284;28;20048;-73
2022/10/04 03:03:21;;;;;;;19.33;9.43;;;11.50;99.90;;;;;;5041238;28;20045;-73
2022/10/04 03:06:06;;;;;;;14.77;8.35;;;11.30;99.90;;;;;;5075212;28;20040;-73
2022/10/04 03:08:51;;;;;;;19.45;8.88;;;11.50;99.90;;;;;;5057338;28;20041;-73
2022/10/04 03:11:20;;;;;;;17.35;8.68;;;11.40;99.90;;;;;;5057786;28;20045;-73
2022/10/04 03:13:53;;;;;;;17.80;9.35;;;11.30;99.90;;;;;;5049682;28;20037;-73
2022/10/04 03:16:19;;;;;;;20.35;8.80;;;11.30;99.90;;;;;;5037518;28;20041;-74
2022/10/04 03:18:47;;;;;;;18.60;9.75;;;11.40;99.90;;;;;;5055239;28;20036;-73
2022/10/04 03:21:15;;;;;;;14.80;8.82;;;11.10;99.90;;;;;;5037027;28;20041;-73
2022/10/04 03:23:42;;;;;;;16.48;9.20;;;11.30;99.90;;;;;;5036941;28;20051;-73
2022/10/04 03:26:16;;;;;;;11.82;8.70;;;11.20;99.90;;;;;;5050796;28;20040;-73
2022/10/04 03:28:42;;;;;;;18.45;9.90;;;11.20;99.90;;;;;;5075044;28;20505;-73
2022/10/04 03:31:08;;;;;;;19.55;9.55;;;11.30;99.90;;;;;;5074826;28;20040;-73
2022/10/04 03:33:34;;;;;;;15.70;9.43;;;11.30;99.90;;;;;;5074846;28;20505;-73
2022/10/04 03:36:00;;;;;;;22.58;10.88;;;11.20;99.90;;;;;;5056648;28;20078;-73
2022/10/04 03:38:28;;;;;;;20.33;9.93;;;11.30;99.90;;;;;;5055936;28;20049;-73
2022/10/04 03:40:59;;;;;;;19.88;9.18;;;11.30;99.90;;;;;;5054427;28;20039;-73
2022/10/04 03:43:30;;;;;;;17.83;9.57;;;11.10;99.90;;;;;;5054558;28;20037;-73
2022/10/04 03:45:57;;;;;;;16.13;8.85;;;11.00;99.90;;;;;;5036376;28;20475;-74
2022/10/04 03:48:40;;;;;;;19.63;10.20;;;11.20;99.90;;;;;;5054499;28;20051;-73
2022/10/04 03:51:10;;;;;;;20.25;10.23;;;11.00;99.90;;;;;;5036457;28;20387;-73
2022/10/04 03:53:42;;;;;;;15.10;8.63;;;11.10;99.90;;;;;;5035724;28;20069;-74
2022/10/04 03:56:12;;;;;;;16.73;9.27;;;10.80;99.90;;;;;;5036144;28;20044;-73
2022/10/04 03:58:38;;;;;;;22.08;11.30;;;11.00;99.90;;;;;;5036426;28;20095;-73
2022/10/04 04:01:08;;;;;;;21.10;10.13;;;11.10;99.90;;;;;;5036235;28;20045;-73
2022/10/04 04:03:59;;;;;;;18.15;10.25;;;10.90;99.90;;;;;;5054094;28;20072;-73
2022/10/04 04:06:36;;;;;;;18.55;9.63;;;11.00;99.90;;;;;;5036574;28;20048;-73
2022/10/04 04:09:05;;;;;;;19.35;11.20;;;10.90;99.90;;;;;;5054193;28;20119;-73
2022/10/04 04:11:31;;;;;;;25.10;10.38;;;11.00;99.90;;;;;;5036339;28;20422;-73
2022/10/04 04:13:58;;;;;;;18.35;11.13;;;;;;;;;;5024705;28;20032;-73
2022/10/04 04:16:25;;;;;;;23.08;10.98;;;;;;;;;;5046172;28;20110;-73
2022/10/04 04:18:52;;;;;;;16.77;10.68;;;11.00;99.90;;;;;;5054074;28;20044;-73
2022/10/04 04:21:22;;;;;;;17.35;10.02;;;11.00;99.90;;;;;;5036197;28;20111;-73
2022/10/04 04:24:04;;;;;;;21.27;10.38;;;10.90;99.90;;;;;;5039658;28;20518;-73
2022/10/04 04:26:40;;;;;;;24.52;9.98;;;11.10;99.90;;;;;;5047431;28;20579;-73
2022/10/04 04:29:11;;;;;;;20.88;10.55;;;11.00;99.90;;;;;;5036202;28;20053;-72
2022/10/04 04:31:56;;;;;;;15.55;10.02;;;11.20;99.90;;;;;;5053799;28;20039;-73
2022/10/04 04:34:28;;;;;;;18.73;11.27;;;11.10;99.90;;;;;;5053443;28;20704;-73
2022/10/04 04:36:59;;;;;;;26.65;12.73;;;10.90;99.90;;;;;;5053574;28;20037;-73
2022/10/04 04:39:44;;;;;;;17.73;11.20;;;11.00;99.90;;;;;;5053945;28;20040;-73
2022/10/04 04:42:09;;;;;;;21.48;11.25;;;10.70;99.90;;;;;;5035751;28;20124;-73
2022/10/04 04:44:59;;;;;;;19.00;11.43;;;10.90;99.90;;;;;;5063118;28;20111;-75
2022/10/04 04:47:32;;;;;;;22.35;11.75;;;11.00;99.90;;;;;;5054766;28;20059;-73
2022/10/04 04:50:05;;;;;;;18.25;10.93;;;10.90;99.90;;;;;;5055029;28;20510;-73
2022/10/04 04:52:32;;;;;;;24.80;11.07;;;11.00;99.90;;;;;;5038831;28;20044;-73
2022/10/04 04:54:59;;;;;;;19.05;11.52;;;10.80;99.90;;;;;;5059809;28;20037;-73
2022/10/04 04:57:24;;;;;;;28.27;11.52;;;10.90;99.90;;;;;;5048908;28;20086;-73
2022/10/04 04:59:58;;;;;;;18.02;10.30;;;11.00;99.90;;;;;;5055245;28;20040;-73
2022/10/04 05:02:35;;;;;;;31.75;12.70;;;10.70;99.90;;;;;;5073141;28;20395;-74
2022/10/04 05:05:21;;;;;;;21.92;10.82;;;10.80;99.90;;;;;;5054071;28;20469;-73
2022/10/04 05:07:47;;;;;;;20.33;11.48;;;10.80;99.90;;;;;;5054690;28;20041;-73
2022/10/04 05:10:32;;;;;;;22.83;11.40;;;10.90;99.90;;;;;;5054669;28;20055;-73
2022/10/04 05:13:00;;;;;;;20.38;11.27;;;10.80;99.90;;;;;;5072892;28;20068;-73
2022/10/04 05:15:38;;;;;;;19.55;11.75;;;10.80;99.90;;;;;;5055938;28;20041;-73
2022/10/04 05:18:24;;;;;;;21.15;11.43;;;11.00;99.90;;;;;;5034922;28;20147;-73
2022/10/04 05:20:53;;;;;;;21.65;12.35;;;11.00;99.90;;;;;;5034662;28;20041;-73
2022/10/04 05:23:18;;;;;;;16.73;11.25;;;10.90;99.90;;;;;;5034753;28;20045;-73
2022/10/04 05:25:44;;;;;;;22.20;12.35;;;10.80;99.90;;;;;;5052863;28;20043;-73
2022/10/04 05:28:13;;;;;;;22.05;11.35;;;11.00;99.90;;;;;;5037978;28;20068;-73
2022/10/04 05:31:01;;;;;;;16.98;11.13;;;11.00;99.90;;;;;;5054459;28;20094;-74
2022/10/04 05:33:39;;;;;;;23.20;13.80;;;10.90;99.90;;;;;;5072646;28;20051;-73
2022/10/04 05:36:12;;;;;;;20.67;10.88;;;10.90;99.90;;;;;;5038613;28;20044;-71
2022/10/04 05:38:38;;;;;;;22.10;11.32;;;;;;;;;;5054572;28;20154;-73
2022/10/04 05:41:08;;;;;;;17.55;11.40;;;11.20;99.90;;;;;;5054261;28;20159;-74
2022/10/04 05:43:34;;;;;;;26.88;13.02;;;;;;;;;;5053297;28;20036;-72
2022/10/04 05:46:18;;;;;;;22.23;12.05;;;10.80;99.90;;;;;;5043304;28;20045;-72
2022/10/04 05:48:47;;;;;;;22.83;11.55;;;10.90;99.90;;;;;;5037595;28;20043;-72
2022/10/04 05:51:19;;;;;;;23.80;12.88;;;11.00;99.90;;;;;;5054044;28;20044;-73
2022/10/04 05:53:45;;;;;;;23.50;12.65;;;11.00;99.90;;;;;;5035606;28;20037;-73
2022/10/04 05:56:29;;;;;;;20.42;12.45;;;11.00;99.90;;;;;;5034249;28;20564;-73
2022/10/04 05:59:29;;;;;;;22.75;12.52;;;11.00;99.90;;;;;;5017676;28;20041;-74
2022/10/04 06:02:14;;;;;;;24.55;12.77;;;10.80;99.90;;;;;;5042578;28;20041;-75
2022/10/04 06:05:05;;;;;;;18.60;11.20;;;11.10;99.90;;;;;;5062531;28;20049;-72
2022/10/04 06:07:41;;;;;;;22.65;12.85;;;11.10;99.90;;;;;;5038653;28;20045;-72
2022/10/04 06:10:26;;;;;;;20.90;12.60;;;11.00;99.90;;;;;;5060200;28;20047;-73
2022/10/04 06:13:02;;;;;;;18.02;11.00;;;10.90;99.90;;;;;;5039686;28;20068;-75
2022/10/04 06:15:30;;;;;;;29.73;13.80;;;;;;;;;;5062393;28;20075;-74
2022/10/04 06:18:12;;;;;;;17.42;11.48;;;11.00;99.90;;;;;;5041179;28;20445;-76
2022/10/04 06:20:48;;;;;;;22.40;14.00;;;11.00;99.90;;;;;;5066027;28;20115;-76
2022/10/04 06:23:17;;;;;;;23.23;13.52;;;11.10;99.90;;;;;;5044665;28;20072;-75
2022/10/04 06:25:43;;;;;;;21.25;12.35;;;;;;;;;;5064570;28;20059;-73
2022/10/04 06:28:09;;;;;;;21.30;12.63;;;;;;;;;;5043861;28;20553;-74
2022/10/04 06:30:57;;;;;;;23.90;13.60;;;11.20;99.90;;;;;;5044664;28;20525;-73
2022/10/04 06:33:32;;;;;;;20.50;12.35;;;11.10;99.90;;;;;;5023821;28;20048;-73
2022/10/04 06:36:14;;;;;;;23.40;14.02;;;11.10;99.90;;;;;;5046892;28;20564;-74
2022/10/04 06:38:54;;;;;;;21.20;13.45;;;11.20;99.90;;;;;;5044099;28;20040;-73
2022/10/04 06:41:48;;;;;;;24.23;12.80;;;11.30;99.90;;;;;;5065357;28;20048;-73
2022/10/04 06:44:17;;;;;;;26.90;13.10;;;11.20;99.90;;;;;;5042540;28;20149;-73
2022/10/04 06:46:45;;;;;;;19.35;12.80;;;11.30;99.90;;;;;;5048633;28;20036;-73
2022/10/04 06:49:40;;;;;;;24.42;12.40;;;11.30;99.90;;;;;;5043782;28;20074;-73
2022/10/04 06:52:17;;;;;;;20.60;13.25;;;11.30;99.90;;;;;;5043820;28;20043;-74
2022/10/04 06:54:43;;;;;;;23.40;13.60;;;;;;;;;;5064867;28;20048;-73
2022/10/04 06:57:34;;;;;;;24.48;14.43;;;11.40;99.90;;;;;;5050436;28;20414;-74
2022/10/04 07:00:03;;;;;;;27.42;14.27;;;11.60;99.90;;;;;;5058137;28;20108;-74
2022/10/04 07:02:50;;;;;;;19.05;11.77;;;11.60;99.90;;;;;;5040688;28;20040;-73
2022/10/04 07:05:37;;;;;;;24.65;13.77;;;11.60;99.90;;;;;;5064674;28;20041;-74
2022/10/04 07:08:35;;;;;;;23.15;13.77;;;11.80;99.90;;;;;;5063564;28;20072;-74
2022/10/04 07:11:41;;;;;;;26.80;12.88;;;11.70;99.90;;;;;;5031186;28;20037;-73
2022/10/04 07:14:31;;;;;;;26.08;14.18;;;12.30;99.90;;;;;;5022835;28;20041;-73
2022/10/04 07:17:04;;;;;;;21.38;12.90;;;12.20;99.90;;;;;;5043368;28;20051;-74
2022/10/04 07:19:39;;;;;;;21.05;13.55;;;12.10;99.90;;;;;;5024693;28;20029;-74
2022/10/04 07:22:34;;;;;;;28.23;13.27;;;12.30;99.90;;;;;;5024470;28;20054;-74
2022/10/04 07:25:20;;;;;;;18.30;13.25;;;12.50;99.90;;;;;;5033530;28;20040;-74
2022/10/04 07:30:47;;;;;;;22.33;13.53;;;12.40;99.90;;;;;;5049160;28;20125;-73
2022/10/04 07:33:19;;;;;;;21.83;13.75;;;12.30;99.90;;;;;;5019643;28;20494;-73
2022/10/04 07:35:49;;;;;;;21.70;13.73;;;12.30;99.90;;;;;;5036723;28;20086;-74
2022/10/04 07:38:15;;;;;;;18.73;11.60;;;;;;;;;;5050989;28;20048;-74
2022/10/04 07:41:02;;;;;;;27.58;12.65;;;12.50;99.90;;;;;;5039269;28;20040;-72
2022/10/04 07:43:34;;;;;;;26.33;14.02;;;12.40;99.90;;;;;;5062797;28;20051;-74
2022/10/04 07:46:14;;;;;;;20.50;12.55;;;12.20;99.90;;;;;;5045132;28;20553;-74
2022/10/04 07:48:40;;;;;;;25.38;12.98;;;12.40;99.90;;;;;;5046159;28;20040;-74
2022/10/04 07:51:24;;;;;;;22.45;12.82;;;12.00;99.90;;;;;;5073861;22;20045;-73
2022/10/04 07:53:55;;;;;;;;;;;12.40;99.90;;;;;;5031311;28;20053;-73
2022/10/04 07:57:00;;;;;;;25.08;13.77;;;12.20;99.90;;;;;;5015349;28;20282;-73
2022/10/04 07:59:38;;;;;;;20.70;11.85;;;12.20;99.90;;;;;;5045567;28;20045;-74
2022/10/04 08:02:19;;;;;;;22.25;12.85;;;;;;;;;;5012947;28;20091;-74
2022/10/04 08:04:50;;;;;;;24.05;13.52;;;12.40;99.90;;;;;;5030345;28;20072;-74
2022/10/04 08:07:26;;;;;;;21.02;12.82;;;12.80;99.90;;;;;;5027668;28;20038;-73
2022/10/04 08:10:24;;;;;;;30.63;14.77;;;12.90;99.90;;;;;;5028531;28;20033;-74
2022/10/04 08:13:15;;;;;;;24.45;11.93;;;12.80;99.90;;;;;;5032920;28;20052;-74
2022/10/04 08:15:42;;;;;;;19.60;11.75;;;13.10;99.90;;;;;;5028409;28;20357;-74
2022/10/04 08:18:40;;;;;;;28.23;13.25;;;13.00;99.90;;;;;;5031199;28;20041;-73
2022/10/04 08:21:08;;;;;;;24.20;13.13;;;13.10;99.90;;;;;;5030712;28;20046;-74
2022/10/04 08:23:40;;;;;;;21.00;11.65;;;13.50;99.90;;;;;;5013609;28;20091;-74
2022/10/04 08:26:06;;;;;;;21.85;12.68;;;;;;;;;;5031315;28;20034;-74
2022/10/04 08:32:22;;;;;;;17.40;10.55;;;13.50;99.90;;;;;;5013320;28;20132;-72
2022/10/04 08:35:15;;;;;;;19.10;10.32;;;13.70;99.90;;;;;;5012786;28;20050;-72
2022/10/04 08:37:41;;;;;;;16.00;10.00;;;;;;;;;;5013411;28;20137;-72
2022/10/04 08:40:07;;;;;;;19.08;10.68;;;;;;;;;;5012986;28;20121;-72
2022/10/04 08:42:51;;;;;;;24.48;12.00;;;13.90;99.90;;;;;;5013142;28;20122;-72
2022/10/04 08:45:31;;;;;;;;;;;13.80;99.90;;;;;;5017561;28;20116;-72
2022/10/04 08:48:34;;;;;;;12.95;9.98;;;14.00;99.90;;;;;;4994752;28;19917;-72
2022/10/04 08:51:28;;;;;;;16.60;10.07;;;14.10;99.90;;;;;;4995240;28;20034;-72
2022/10/04 08:54:34;;;;;;;16.85;10.55;;;14.10;99.90;;;;;;5000040;28;20041;-72
2022/10/04 08:57:27;;;;;;;19.63;10.07;;;14.20;99.90;;;;;;5016378;28;20120;-72
2022/10/04 09:00:18;;;;;;;17.55;10.32;;;14.20;99.90;;;;;;5024165;28;20076;-72
2022/10/04 09:03:03;;;;;;;13.75;9.27;;;14.40;99.90;;;;;;5032932;28;20084;-72
2022/10/04 09:05:57;;;;;;;17.63;9.75;;;14.30;99.90;;;;;;5011285;28;20042;-72
2022/10/04 09:08:43;;;;;;;16.17;9.63;;;14.30;99.90;;;;;;5013131;28;20073;-72
2022/10/04 09:11:44;;;;;;;17.25;8.98;;;14.20;99.90;;;;;;5011372;28;20038;-72
2022/10/04 09:14:34;;;;;;;19.55;9.35;;;14.50;99.90;;;;;;5011695;28;20539;-72
2022/10/04 09:17:19;;;;;;;18.77;9.13;;;14.60;99.90;;;;;;5019304;28;20100;-72
2022/10/04 09:19:45;;;;;;;14.63;9.13;;;;;;;;;;5012151;28;20077;-72
2022/10/04 09:22:39;;;;;;;16.05;9.98;;;14.70;99.90;;;;;;5028631;28;20533;-71
2022/10/04 09:25:21;;;;;;;19.83;10.43;;;14.70;99.90;;;;;;5008074;28;20034;-72
2022/10/04 09:28:35;;;;;;;22.45;10.68;;;14.70;99.90;;;;;;5029834;28;20033;-72
2022/10/04 09:31:28;;;;;;;18.25;11.13;;;15.00;99.90;;;;;;5021013;28;20042;-72
2022/10/04 09:34:13;;;;;;;19.52;12.25;;;14.80;99.90;;;;;;5027276;28;20034;-73
2022/10/04 09:37:13;;;;;;;22.02;11.48;;;15.00;99.90;;;;;;5025721;28;20566;-71
2022/10/04 09:40:18;;;;;;;15.85;10.27;;;15.20;99.90;;;;;;5026955;28;20041;-72
2022/10/04 09:43:16;;;;;;;17.80;11.98;;;15.20;99.90;;;;;;5027488;28;20045;-72
2022/10/04 09:45:47;;;;;;;17.85;12.10;;;15.40;99.90;;;;;;5024529;28;20033;-72
2022/10/04 09:48:24;;;;;;;23.27;13.23;;;15.50;99.90;;;;;;5030661;28;20049;-72
2022/10/04 09:51:06;;;;;;;23.83;12.80;;;15.10;99.90;;;;;;5027107;28;20120;-72
2022/10/04 09:53:32;;;;;;;24.25;12.95;;;;;;;;;;5030599;28;20124;-72
2022/10/04 09:56:30;;;;;;;19.23;13.60;;;15.40;99.90;;;;;;5024077;28;20041;-72
2022/10/04 09:59:23;;;;;;;20.17;13.07;;;15.90;99.90;;;;;;4960478;28;20047;-72
2022/10/04 10:02:30;;;;;;;20.83;12.27;;;15.90;99.90;;;;;;5013396;28;20100;-72
2022/10/04 10:05:15;;;;;;;16.85;12.65;;;15.40;99.90;;;;;;5010392;28;20617;-72
2022/10/04 10:07:49;;;;;;;20.23;12.05;;;15.80;99.90;;;;;;5027059;28;20044;-71
2022/10/04 10:14:13;;;;;;;23.70;12.82;;;15.90;99.90;;;;;;4990584;28;20049;-72
2022/10/04 10:16:48;;;;;;;20.15;13.05;;;15.70;99.90;;;;;;5028192;28;20056;-73
2022/10/04 10:19:51;;;;;;;17.98;13.02;;;15.90;99.90;;;;;;5020428;28;20417;-73
2022/10/04 10:22:26;;;;;;;23.27;14.20;;;15.60;99.90;;;;;;5017648;28;20042;-74
2022/10/04 10:25:20;;;;;;;19.90;12.70;;;15.60;99.90;;;;;;5012957;28;20276;-73
2022/10/04 10:28:34;;;;;;;17.45;13.15;;;15.70;99.90;;;;;;5026813;28;20037;-71
2022/10/04 10:31:02;;;;;;;22.92;14.90;;;;;;;;;;5019500;28;20060;-73
2022/10/04 10:34:06;;;;;;;21.45;13.95;;;15.70;99.90;;;;;;5024918;28;20123;-73
2022/10/04 10:36:47;;;;;;;19.15;13.05;;;15.70;99.90;;;;;;5025457;28;20041;-73
2022/10/04 10:39:32;;;;;;;16.70;12.38;;;15.80;99.90;;;;;;5024098;28;20092;-74
2022/10/04 10:42:12;;;;;;;20.70;12.93;;;15.80;99.90;;;;;;5021735;28;20099;-73
2022/10/04 10:45:09;;;;;;;19.60;11.80;;;16.00;99.90;;;;;;5016236;28;20507;-73
2022/10/04 10:48:04;;;;;;;16.73;11.65;;;16.30;99.90;;;;;;5018896;28;20038;-73
2022/10/04 10:50:30;;;;;;;15.15;10.65;;;;;;;;;;5021922;28;20112;-72
2022/10/04 10:53:28;;;;;;;20.15;10.95;;;16.40;99.90;;;;;;5025059;28;20045;-74
2022/10/04 10:56:00;;;;;;;15.93;10.32;;;16.60;99.90;;;;;;4999449;28;20207;-73
2022/10/04 10:58:29;;;;;;;17.80;9.77;;;16.30;99.90;;;;;;5025743;28;20053;-73
2022/10/04 11:00:56;;;;;;;19.63;10.98;;;;;;;;;;5027046;28;20052;-73
2022/10/04 11:03:53;;;;;;;21.58;10.15;;;16.40;99.90;;;;;;5018487;28;20097;-73
2022/10/04 11:06:25;;;;;;;14.10;9.60;;;16.40;99.90;;;;;;5014786;28;20038;-73
2022/10/04 11:09:15;;;;;;;20.17;10.95;;;16.50;99.90;;;;;;5013121;28;20037;-73
2022/10/04 11:12:04;;;;;;;17.63;9.48;;;16.60;99.90;;;;;;5014399;28;20041;-74
2022/10/04 11:14:57;;;;;;;14.95;9.73;;;16.90;99.90;;;;;;4996750;28;20050;-73
2022/10/04 11:17:48;;;;;;;13.90;9.07;;;17.10;99.90;;;;;;5032613;28;20106;-73
2022/10/04 11:20:47;;;;;;;16.23;9.13;;;16.90;99.90;;;;;;5033673;28;20034;-73
2022/10/04 11:23:36;;;;;;;12.43;7.60;;;16.80;99.90;;;;;;5020211;28;20053;-74
2022/10/04 11:26:02;;;;;;;11.68;7.70;;;;;;;;;;5032364;28;20030;-73
2022/10/04 11:29:08;;;;;;;14.40;8.73;;;16.70;99.90;;;;;;5032303;28;20400;-73
2022/10/04 11:32:01;;;;;;;15.13;8.95;;;16.70;99.90;;;;;;5033836;28;20042;-74
2022/10/04 11:35:06;;;;;;;12.90;7.40;;;16.80;99.90;;;;;;5029589;28;20045;-74
2022/10/04 11:37:42;;;;;;;14.23;8.05;;;16.90;99.90;;;;;;5031539;28;20069;-73
2022/10/04 11:40:46;;;;;;;12.57;7.25;;;16.90;99.90;;;;;;5032813;28;20495;-74
2022/10/04 11:43:40;;;;;;;12.02;7.50;;;16.80;99.90;;;;;;5030464;28;20041;-73
2022/10/04 11:46:32;;;;;;;15.07;8.98;;;16.60;99.90;;;;;;5024002;28;20080;-74
2022/10/04 11:49:00;;;;;;;14.38;9.05;;;16.60;99.90;;;;;;5028265;28;20044;-74
2022/10/04 11:51:39;;;;;;;10.13;8.05;;;16.60;99.90;;;;;;5015439;28;20104;-74
2022/10/04 11:54:33;;;;;;;13.07;8.68;;;16.70;99.90;;;;;;5027282;28;20107;-74
2022/10/04 11:57:30;;;;;;;13.88;7.93;;;17.10;99.90;;;;;;5018238;28;20048;-74
2022/10/04 11:59:56;;;;;;;12.82;6.63;;;;;;;;;;5025513;28;20499;-73
2022/10/04 12:02:40;;;;;;;10.23;7.38;;;17.00;99.90;;;;;;5030164;28;20037;-74
2022/10/04 12:05:27;;;;;;;14.18;8.05;;;17.10;99.90;;;;;;5029496;28;20034;-74
2022/10/04 12:08:09;;;;;;;12.55;7.68;;;17.20;99.90;;;;;;5030172;28;20518;-75
2022/10/04 12:10:40;;;;;;;11.27;7.13;;;17.00;99.90;;;;;;5028765;28;20041;-74
2022/10/04 12:13:21;;;;;;;13.60;7.35;;;17.30;99.90;;;;;;5031090;28;20057;-74
2022/10/04 12:16:28;;;;;;;14.40;8.63;;;17.20;99.90;;;;;;5031436;28;20063;-75
2022/10/04 12:19:21;;;;;;;17.35;8.55;;;17.30;99.90;;;;;;5027695;28;20045;-75
2022/10/04 12:22:17;;;;;;;12.32;7.90;;;17.40;99.90;;;;;;5031047;28;20041;-75
2022/10/04 12:24:47;;;;;;;12.57;8.10;;;17.30;99.90;;;;;;5028134;28;20057;-76
2022/10/04 12:27:12;;;;;;;14.25;7.95;;;17.50;99.90;;;;;;5029784;28;20053;-75
2022/10/04 12:30:03;;;;;;;13.77;9.00;;;17.50;99.90;;;;;;5033050;28;20059;-75
2022/10/04 12:32:55;;;;;;;13.27;7.68;;;17.50;99.90;;;;;;5030712;28;20405;-76
2022/10/04 12:35:39;;;;;;;12.18;7.90;;;17.40;99.90;;;;;;5030360;28;20407;-75
2022/10/04 12:38:32;;;;;;;12.85;7.15;;;17.40;99.90;;;;;;5015959;28;20111;-75
2022/10/04 12:41:09;;;;;;;11.05;7.53;;;17.30;99.90;;;;;;5032131;28;20046;-76
2022/10/04 12:43:46;;;;;;;13.68;7.38;;;17.50;99.90;;;;;;5001630;28;20045;-75
2022/10/04 12:46:23;;;;;;;17.55;7.60;;;17.60;99.90;;;;;;5031904;28;20052;-75
2022/10/04 12:49:14;;;;;;;13.70;6.75;;;17.50;99.90;;;;;;5015828;28;20503;-76
2022/10/04 12:51:53;;;;;;;10.88;7.20;;;17.50;99.90;;;;;;5031965;28;20065;-76
2022/10/04 12:54:40;;;;;;;12.68;6.60;;;17.70;99.90;;;;;;5024459;28;20037;-76
2022/10/04 12:57:15;;;;;;;13.18;5.93;;;17.90;99.90;;;;;;5017234;28;20490;-76
2022/10/04 13:00:16;;;;;;;14.55;7.82;;;17.80;99.90;;;;;;5032186;28;20115;-76
2022/10/04 13:02:58;;;;;;;11.32;7.30;;;17.90;99.90;;;;;;5031752;28;20103;-76
2022/10/04 13:05:48;;;;;;;10.77;6.40;;;17.80;99.90;;;;;;5031157;28;20392;-75
2022/10/04 13:08:41;;;;;;;9.40;6.60;;;17.80;99.90;;;;;;5032999;28;20380;-75
2022/10/04 13:11:07;;;;;;;12.25;6.97;;;;;;;;;;5033032;28;20052;-75
2022/10/04 13:14:00;;;;;;;11.85;6.68;;;17.60;99.90;;;;;;5027249;28;20042;-76
2022/10/04 13:16:31;;;;;;;12.70;7.28;;;17.50;99.90;;;;;;5027689;28;20037;-75
2022/10/04 13:19:18;;;;;;;12.00;6.72;;;17.40;99.90;;;;;;5031054;28;20041;-75
2022/10/04 13:21:55;;;;;;;9.05;5.85;;;17.60;99.90;;;;;;5030773;28;20044;-75
2022/10/04 13:24:53;;;;;;;9.65;6.85;;;17.50;99.90;;;;;;5032040;28;20558;-76
2022/10/04 13:27:43;;;;;;;13.38;7.05;;;17.50;99.90;;;;;;5031385;28;20044;-75
2022/10/04 13:30:20;;;;;;;9.95;6.57;;;17.80;99.90;;;;;;5032703;28;20077;-75
2022/10/04 13:32:51;;;;;;;16.02;7.30;;;17.70;99.90;;;;;;5030880;28;20063;-75
2022/10/04 13:35:24;;;;;;;13.05;7.82;;;17.80;99.90;;;;;;5030962;28;20446;-75
2022/10/04 13:37:50;;;;;;;;;;;17.90;99.90;;;;;;5031837;28;20175;-76
2022/10/04 13:40:20;;;;;;;11.75;6.43;;;17.80;99.90;;;;;;5030881;28;20375;-75
2022/10/04 13:42:57;;;;;;;7.82;5.53;;;17.70;99.90;;;;;;5030684;28;20045;-75
2022/10/04 13:45:23;;;;;;;14.15;6.63;;;17.90;99.90;;;;;;5030248;28;20044;-75
2022/10/04 13:48:07;;;;;;;11.20;6.13;;;17.80;99.90;;;;;;5030552;28;20037;-75
2022/10/04 13:51:08;;;;;;;12.77;7.05;;;17.80;99.90;;;;;;5030710;28;20388;-76
2022/10/04 13:56:35;;;;;;;8.93;5.43;;;17.70;99.90;;;;;;5011815;28;20041;-75